createdAt,value
2023-11-23T00:01:53.336Z,19.77
2023-11-23T00:04:21.180Z,20.73
2023-11-23T00:06:47.710Z,21.67
2023-11-23T00:09:14.240Z,21.47
2023-11-23T00:11:41.165Z,22.83
2023-11-23T00:14:07.466Z,18.87
2023-11-23T00:16:33.809Z,21.40
2023-11-23T00:19:00.126Z,18.73
2023-11-23T00:21:27.773Z,17.93
2023-11-23T00:23:54.380Z,17.20
2023-11-23T00:26:20.793Z,16.77
2023-11-23T00:28:47.128Z,17.23
2023-11-23T00:31:13.649Z,19.70
2023-11-23T00:33:40.068Z,17.30
2023-11-23T00:36:06.765Z,19.30
2023-11-23T00:38:35.031Z,18.60
2023-11-23T00:41:01.892Z,18.90
2023-11-23T00:43:28.263Z,14.73
2023-11-23T00:45:54.544Z,16.97
2023-11-23T00:48:20.904Z,16.80
2023-11-23T00:50:47.674Z,15.27
2023-11-23T00:53:13.979Z,16.67
2023-11-23T00:55:40.502Z,16.03
2023-11-23T00:58:06.920Z,14.67
2023-11-23T01:00:33.408Z,15.73
2023-11-23T01:03:00.215Z,15.60
2023-11-23T01:05:27.773Z,15.27
2023-11-23T01:07:54.207Z,13.87
2023-11-23T01:10:20.525Z,12.93
2023-11-23T01:12:46.944Z,14.63
2023-11-23T01:15:13.516Z,14.47
2023-11-23T01:17:40.146Z,12.20
2023-11-23T01:20:06.952Z,12.07
2023-11-23T01:22:33.309Z,8.70
2023-11-23T01:24:59.593Z,7.53
2023-11-23T01:27:25.947Z,7.33
2023-11-23T01:29:52.269Z,7.00
2023-11-23T01:32:18.625Z,7.37
2023-11-23T01:34:44.997Z,6.77
2023-11-23T01:37:11.305Z,8.37
2023-11-23T01:39:37.583Z,8.63
2023-11-23T01:42:04.290Z,6.60
2023-11-23T01:44:30.626Z,7.03
2023-11-23T01:46:57.307Z,7.87
2023-11-23T01:49:24.116Z,7.73
2023-11-23T01:51:50.449Z,7.47
2023-11-23T01:54:17.329Z,7.13
2023-11-23T01:56:45.134Z,8.37
2023-11-23T01:59:13.113Z,8.03
2023-11-23T02:01:39.732Z,8.67
2023-11-23T02:04:06.189Z,7.70
2023-11-23T02:06:32.476Z,8.53
2023-11-23T02:08:58.842Z,8.37
2023-11-23T02:11:25.136Z,9.87
2023-11-23T02:13:51.475Z,9.13
2023-11-23T02:16:17.831Z,9.00
2023-11-23T02:18:44.299Z,11.73
2023-11-23T02:21:10.899Z,10.27
2023-11-23T02:23:37.367Z,12.47
2023-11-23T02:26:03.709Z,13.47
2023-11-23T02:28:33.616Z,14.40
2023-11-23T02:30:59.985Z,11.90
2023-11-23T02:33:26.387Z,15.67
2023-11-23T02:35:53.045Z,12.80
2023-11-23T02:38:19.487Z,13.70
2023-11-23T02:40:45.749Z,15.30
2023-11-23T02:43:12.253Z,14.10
2023-11-23T02:45:38.659Z,15.93
2023-11-23T02:48:06.075Z,15.27
2023-11-23T02:50:32.593Z,17.50
2023-11-23T02:52:59.445Z,16.17
2023-11-23T02:55:25.736Z,14.80
2023-11-23T02:57:52.119Z,18.50
2023-11-23T03:00:18.594Z,19.00
2023-11-23T03:02:45.083Z,21.10
2023-11-23T03:05:11.800Z,20.00
2023-11-23T03:07:38.219Z,24.07
2023-11-23T03:10:04.695Z,21.27
2023-11-23T03:12:30.978Z,22.73
2023-11-23T03:14:57.450Z,24.77
2023-11-23T03:17:23.906Z,27.27
2023-11-23T03:19:50.304Z,25.13
2023-11-23T03:22:16.647Z,24.07
2023-11-23T03:24:43.541Z,25.87
2023-11-23T03:27:13.911Z,28.30
2023-11-23T03:29:40.303Z,26.57
2023-11-23T03:32:06.833Z,24.23
2023-11-23T03:34:33.162Z,23.67
2023-11-23T03:36:59.488Z,24.30
2023-11-23T03:39:25.826Z,28.33
2023-11-23T03:41:52.278Z,23.90
2023-11-23T03:44:19.007Z,29.00
2023-11-23T03:46:45.320Z,30.83
2023-11-23T03:49:12.743Z,27.73
2023-11-23T03:51:39.059Z,28.47
2023-11-23T03:54:05.588Z,25.77
2023-11-23T03:56:32.012Z,29.60
2023-11-23T03:58:58.336Z,31.47
2023-11-23T04:01:24.847Z,35.17
2023-11-23T04:03:51.298Z,29.10
2023-11-23T04:06:18.844Z,31.73
2023-11-23T04:08:48.737Z,30.07
2023-11-23T04:11:15.516Z,30.33
2023-11-23T04:13:42.194Z,29.23
2023-11-23T04:16:09.785Z,36.50
2023-11-23T04:18:36.188Z,30.77
2023-11-23T04:21:02.626Z,31.00
2023-11-23T04:23:28.922Z,29.57
2023-11-23T04:25:55.331Z,31.57
2023-11-23T04:28:21.636Z,37.77
2023-11-23T04:30:48.699Z,33.33
2023-11-23T04:33:15.411Z,53.43
2023-11-23T04:35:41.830Z,80.10
2023-11-23T04:38:08.485Z,47.67
2023-11-23T04:40:34.769Z,49.87
2023-11-23T04:43:01.054Z,77.83
2023-11-23T04:45:27.635Z,80.80
2023-11-23T04:47:54.032Z,70.77
2023-11-23T04:50:22.505Z,63.73
2023-11-23T04:52:49.211Z,46.20
2023-11-23T04:55:15.535Z,40.37
2023-11-23T04:57:41.933Z,66.80
2023-11-23T05:00:11.345Z,90.63
2023-11-23T05:02:37.963Z,59.57
2023-11-23T05:05:04.415Z,58.50
2023-11-23T05:07:30.685Z,43.60
2023-11-23T05:09:57.366Z,43.97
2023-11-23T05:12:24.076Z,36.27
2023-11-23T05:14:50.487Z,66.10
2023-11-23T05:17:16.847Z,76.20
2023-11-23T05:19:43.507Z,29.40
2023-11-23T05:22:10.445Z,31.13
2023-11-23T05:24:36.938Z,51.13
2023-11-23T05:27:03.383Z,52.80
2023-11-23T05:29:29.774Z,34.20
2023-11-23T05:31:56.068Z,36.97
2023-11-23T05:34:22.353Z,77.77
2023-11-23T05:36:48.631Z,60.67
2023-11-23T05:39:15.687Z,58.50
2023-11-23T05:41:42.054Z,56.50
2023-11-23T05:44:08.439Z,49.30
2023-11-23T05:46:34.997Z,40.47
2023-11-23T05:49:01.418Z,69.53
2023-11-23T05:51:29.134Z,67.13
2023-11-23T05:53:55.557Z,59.27
2023-11-23T05:56:21.945Z,80.10
2023-11-23T05:58:48.248Z,64.73
2023-11-23T06:01:14.673Z,120.50
2023-11-23T06:03:41.494Z,110.63
2023-11-23T06:06:08.325Z,94.63
2023-11-23T06:08:36.055Z,134.80
2023-11-23T06:11:02.343Z,189.00
2023-11-23T06:13:28.806Z,193.30
2023-11-23T06:15:55.164Z,173.27
2023-11-23T06:18:22.961Z,132.00
2023-11-23T06:20:49.494Z,122.03
2023-11-23T06:23:15.960Z,214.30
2023-11-23T06:25:42.369Z,233.13
2023-11-23T06:28:14.964Z,217.87
2023-11-23T06:30:42.681Z,288.47
2023-11-23T06:33:09.488Z,198.60
2023-11-23T06:35:35.917Z,299.67
2023-11-23T06:38:02.227Z,259.93
2023-11-23T06:40:29.747Z,286.63
2023-11-23T06:42:56.025Z,258.73
2023-11-23T06:45:22.420Z,166.83
2023-11-23T06:47:48.953Z,171.60
2023-11-23T06:50:15.475Z,213.93
2023-11-23T06:52:41.852Z,151.30
2023-11-23T06:55:08.481Z,165.30
2023-11-23T06:57:34.779Z,111.67
2023-11-23T07:00:11.817Z,84.13
2023-11-23T07:02:38.170Z,84.90
2023-11-23T07:05:05.013Z,117.63
2023-11-23T07:07:33.365Z,39.37
2023-11-23T07:09:59.688Z,49.80
2023-11-23T07:12:27.583Z,46.37
2023-11-23T07:14:54.140Z,86.70
2023-11-23T07:17:20.454Z,61.87
2023-11-23T07:19:46.796Z,42.07
2023-11-23T07:22:13.155Z,110.07
2023-11-23T07:24:39.497Z,53.10
2023-11-23T07:27:05.859Z,56.67
2023-11-23T07:29:32.798Z,40.93
2023-11-23T07:31:59.142Z,31.37
2023-11-23T07:34:26.115Z,51.47
2023-11-23T07:36:52.712Z,45.93
2023-11-23T07:39:19.044Z,31.30
2023-11-23T07:41:45.460Z,57.47
2023-11-23T07:44:11.753Z,34.17
2023-11-23T07:46:38.130Z,40.90
2023-11-23T07:49:04.484Z,40.90
2023-11-23T07:51:30.834Z,37.30
2023-11-23T07:53:57.168Z,36.17
2023-11-23T07:56:23.717Z,27.43
2023-11-23T07:58:50.902Z,31.58
2023-11-23T08:01:17.321Z,32.55
2023-11-23T08:03:43.819Z,34.00
2023-11-23T08:06:11.180Z,32.28
2023-11-23T08:08:37.654Z,33.10
2023-11-23T08:11:05.659Z,36.93
2023-11-23T08:13:33.097Z,35.33
2023-11-23T08:16:02.496Z,32.08
2023-11-23T08:18:36.830Z,30.25
2023-11-23T08:21:10.075Z,31.02
2023-11-23T08:23:36.467Z,31.23
2023-11-23T08:26:04.501Z,27.80
2023-11-23T08:28:30.853Z,30.85
2023-11-23T08:30:57.149Z,26.87
2023-11-23T08:33:24.751Z,30.17
2023-11-23T08:35:54.405Z,27.33
2023-11-23T08:38:21.039Z,27.77
2023-11-23T08:40:56.590Z,30.90
2023-11-23T08:43:22.972Z,26.83
2023-11-23T08:45:49.330Z,23.33
2023-11-23T08:48:17.005Z,28.65
2023-11-23T08:50:43.440Z,24.42
2023-11-23T08:53:09.878Z,24.48
2023-11-23T08:55:36.345Z,24.67
2023-11-23T08:58:02.647Z,23.80
2023-11-23T09:00:29.872Z,21.53
2023-11-23T09:02:56.417Z,21.15
2023-11-23T09:05:23.285Z,21.25
2023-11-23T09:08:27.230Z,22.20
2023-11-23T09:10:55.494Z,19.75
2023-11-23T09:13:22.095Z,18.08
2023-11-23T09:15:48.765Z,18.15
2023-11-23T09:18:15.158Z,18.00
2023-11-23T09:20:41.463Z,16.88
2023-11-23T09:23:07.804Z,18.67
2023-11-23T09:25:34.943Z,17.85
2023-11-23T09:28:01.568Z,15.60
2023-11-23T09:30:28.031Z,14.95
2023-11-23T09:32:54.568Z,14.05
2023-11-23T09:35:20.983Z,13.65
2023-11-23T09:37:47.271Z,13.82
2023-11-23T09:40:17.488Z,12.18
2023-11-23T09:42:44.377Z,12.43
2023-11-23T09:45:13.680Z,12.05
2023-11-23T09:47:40.610Z,12.93
2023-11-23T09:50:07.749Z,11.82
2023-11-23T09:52:36.074Z,11.52
2023-11-23T09:55:03.760Z,14.23
2023-11-23T09:57:30.120Z,9.52
2023-11-23T09:59:56.815Z,11.10
2023-11-23T10:02:24.703Z,11.38
2023-11-23T10:04:51.324Z,11.15
2023-11-23T10:07:17.868Z,11.83
2023-11-23T10:09:44.490Z,12.38
2023-11-23T10:12:10.863Z,12.88
2023-11-23T10:14:37.165Z,11.77
2023-11-23T10:17:03.480Z,9.73
2023-11-23T10:19:29.960Z,11.23
2023-11-23T10:21:59.993Z,11.15
2023-11-23T10:24:26.780Z,12.43
2023-11-23T10:26:53.757Z,9.73
2023-11-23T10:29:24.933Z,12.63
2023-11-23T10:31:51.934Z,9.15
2023-11-23T10:34:19.857Z,11.93
2023-11-23T10:36:48.232Z,11.55
2023-11-23T10:39:17.540Z,12.85
2023-11-23T10:41:45.882Z,12.18
2023-11-23T10:44:12.634Z,15.32
2023-11-23T10:46:41.751Z,17.00
2023-11-23T10:49:09.293Z,12.27
2023-11-23T10:51:36.400Z,12.48
2023-11-23T10:54:04.042Z,12.38
2023-11-23T10:56:31.170Z,12.20
2023-11-23T10:58:59.497Z,14.23
2023-11-23T11:01:27.280Z,12.73
2023-11-23T11:03:54.061Z,13.52
2023-11-23T11:06:22.829Z,14.23
2023-11-23T11:08:49.693Z,30.17
2023-11-23T11:11:25.882Z,24.40
2023-11-23T11:14:04.377Z,22.05
2023-11-23T11:16:35.146Z,16.13
2023-11-23T11:19:08.078Z,12.10
2023-11-23T11:21:42.699Z,15.73
2023-11-23T11:24:20.027Z,13.40
2023-11-23T11:26:47.943Z,14.05
2023-11-23T11:29:15.930Z,16.92
2023-11-23T11:31:42.839Z,18.30
2023-11-23T11:34:15.601Z,16.02
2023-11-23T11:36:42.861Z,16.42
2023-11-23T11:39:11.899Z,14.10
2023-11-23T11:41:39.129Z,17.02
2023-11-23T11:44:06.454Z,17.52
2023-11-23T11:46:34.657Z,17.63
2023-11-23T11:49:01.597Z,16.45
2023-11-23T11:51:31.666Z,21.77
2023-11-23T11:54:00.621Z,20.95
2023-11-23T11:56:28.022Z,19.20
2023-11-23T11:58:54.413Z,19.33
2023-11-23T12:01:21.002Z,20.88
2023-11-23T12:03:48.145Z,22.45
2023-11-23T12:06:14.777Z,37.13
2023-11-23T12:08:41.113Z,40.10
2023-11-23T12:11:07.528Z,62.40
2023-11-23T12:13:35.472Z,48.55
2023-11-23T12:16:02.569Z,69.30
2023-11-23T12:18:32.697Z,59.15
2023-11-23T12:20:59.772Z,171.68
2023-11-23T12:23:27.778Z,122.20
2023-11-23T12:25:55.115Z,102.78
2023-11-23T12:28:21.757Z,178.80
2023-11-23T12:30:48.465Z,292.70
2023-11-23T12:33:14.912Z,337.20
2023-11-23T12:35:41.428Z,190.80
2023-11-23T12:38:07.955Z,503.25
2023-11-23T12:40:34.544Z,485.85
2023-11-23T12:43:01.203Z,358.67
2023-11-23T12:45:28.192Z,271.45
2023-11-23T12:47:54.637Z,551.88
2023-11-23T12:50:23.009Z,699.05
2023-11-23T12:52:49.838Z,408.70
2023-11-23T12:55:19.354Z,279.08
2023-11-23T12:57:48.453Z,242.85
2023-11-23T13:00:15.453Z,358.63
2023-11-23T13:02:42.550Z,328.95
2023-11-23T13:05:09.804Z,402.10
2023-11-23T13:07:40.301Z,381.95
2023-11-23T13:10:07.291Z,413.75
2023-11-23T13:12:33.825Z,369.92
2023-11-23T13:15:00.277Z,422.48
2023-11-23T13:17:27.515Z,425.35
2023-11-23T13:19:54.157Z,542.58
2023-11-23T13:22:20.603Z,394.13
2023-11-23T13:24:49.756Z,326.90
2023-11-23T13:27:17.339Z,427.13
2023-11-23T13:29:43.950Z,527.88
2023-11-23T13:32:11.610Z,323.13
2023-11-23T13:34:37.908Z,322.70
2023-11-23T13:37:05.736Z,404.13
2023-11-23T13:39:32.858Z,343.85
2023-11-23T13:41:59.340Z,299.00
2023-11-23T13:44:26.009Z,645.55
2023-11-23T13:46:53.236Z,562.75
2023-11-23T13:49:19.709Z,701.72
2023-11-23T13:51:46.415Z,568.65
2023-11-23T13:54:13.007Z,455.60
2023-11-23T13:56:42.552Z,562.95
2023-11-23T13:59:10.112Z,422.90
2023-11-23T14:01:36.598Z,333.10
2023-11-23T14:04:03.037Z,261.40
2023-11-23T14:06:32.299Z,362.60
2023-11-23T14:08:58.910Z,428.50
2023-11-23T14:11:25.858Z,276.83
2023-11-23T14:13:56.139Z,267.85
2023-11-23T14:16:23.007Z,62.40
2023-11-23T14:18:49.618Z,350.65
2023-11-23T14:21:16.077Z,92.75
2023-11-23T14:23:42.585Z,51.88
2023-11-23T14:26:09.685Z,52.85
2023-11-23T14:28:36.064Z,59.88
2023-11-23T14:31:03.593Z,49.45
2023-11-23T14:33:30.582Z,53.42
2023-11-23T14:35:57.921Z,50.10
2023-11-23T14:38:26.402Z,65.80
2023-11-23T14:40:54.449Z,42.67
2023-11-23T14:43:22.676Z,55.67
2023-11-23T14:45:49.293Z,48.75
2023-11-23T14:48:16.062Z,91.88
2023-11-23T14:50:42.512Z,45.67
2023-11-23T14:53:08.842Z,40.72
2023-11-23T14:55:35.656Z,44.85
2023-11-23T14:58:02.119Z,37.42
2023-11-23T15:00:30.677Z,31.77
2023-11-23T15:02:59.837Z,27.33
2023-11-23T15:05:26.199Z,30.27
2023-11-23T15:07:53.549Z,37.00
2023-11-23T15:10:20.597Z,28.70
2023-11-23T15:12:52.870Z,29.92
2023-11-23T15:15:20.207Z,30.45
2023-11-23T15:17:54.481Z,38.15
2023-11-23T15:20:23.118Z,31.48
2023-11-23T15:22:49.638Z,26.65
2023-11-23T15:25:15.974Z,25.40
2023-11-23T15:27:43.865Z,24.73
2023-11-23T15:30:12.207Z,18.00
2023-11-23T15:32:39.468Z,28.80
2023-11-23T15:35:12.195Z,23.13
2023-11-23T15:37:39.138Z,26.58
2023-11-23T15:40:10.512Z,26.00
2023-11-23T15:42:37.379Z,22.63
2023-11-23T15:45:04.005Z,26.48
2023-11-23T15:47:30.379Z,24.23
2023-11-23T15:49:56.717Z,22.52
2023-11-23T15:52:23.114Z,18.60
2023-11-23T15:54:49.437Z,19.10
2023-11-23T15:57:15.828Z,20.00
2023-11-23T15:59:42.184Z,19.27
2023-11-23T16:02:08.636Z,23.65
2023-11-23T16:04:35.041Z,20.58
2023-11-23T16:07:03.704Z,23.40
2023-11-23T16:09:30.542Z,26.83
2023-11-23T16:11:58.788Z,23.02
2023-11-23T16:14:25.114Z,17.52
2023-11-23T16:16:51.537Z,18.05
2023-11-23T16:19:18.282Z,51.13
2023-11-23T16:21:44.731Z,26.95
2023-11-23T16:24:11.847Z,24.20
2023-11-23T16:26:38.634Z,23.67
2023-11-23T16:29:10.858Z,30.40
2023-11-23T16:31:42.197Z,25.50
2023-11-23T16:34:09.637Z,27.90
2023-11-23T16:36:39.791Z,31.38
2023-11-23T16:39:08.441Z,33.47
2023-11-23T16:41:35.120Z,35.33
2023-11-23T16:44:01.900Z,39.20
2023-11-23T16:46:28.274Z,36.03
2023-11-23T16:48:56.030Z,66.57
2023-11-23T16:51:22.514Z,72.60
2023-11-23T16:53:50.912Z,190.80
2023-11-23T16:56:18.635Z,54.58
2023-11-23T16:58:45.345Z,52.85
2023-11-23T17:01:11.710Z,89.80
2023-11-23T17:03:38.241Z,78.35
2023-11-23T17:06:05.015Z,121.38
2023-11-23T17:08:31.370Z,142.55
2023-11-23T17:10:59.297Z,271.90
2023-11-23T17:13:26.281Z,282.55
2023-11-23T17:15:52.724Z,211.32
2023-11-23T17:18:19.819Z,389.85
2023-11-23T17:20:46.281Z,268.58
2023-11-23T17:23:13.322Z,436.90
2023-11-23T17:25:42.806Z,169.40
2023-11-23T17:28:09.219Z,295.02
2023-11-23T17:30:35.704Z,334.83
2023-11-23T17:33:02.183Z,76.93
2023-11-23T17:35:29.226Z,150.05
2023-11-23T17:37:55.844Z,44.38
2023-11-23T17:40:22.295Z,74.38
2023-11-23T17:42:48.747Z,47.20
2023-11-23T17:45:15.155Z,70.28
2023-11-23T17:47:41.984Z,32.03
2023-11-23T17:50:12.493Z,30.95
2023-11-23T17:52:39.163Z,27.88
2023-11-23T17:55:05.807Z,26.45
2023-11-23T17:57:33.998Z,27.05
2023-11-23T18:00:01.696Z,27.10
2023-11-23T18:02:28.227Z,25.27
2023-11-23T18:04:57.131Z,22.98
2023-11-23T18:07:23.689Z,24.73
2023-11-23T18:09:52.754Z,24.00
2023-11-23T18:12:19.152Z,21.92
2023-11-23T18:14:45.582Z,21.15
2023-11-23T18:17:12.596Z,22.17
2023-11-23T18:19:39.050Z,22.05
2023-11-23T18:22:05.798Z,19.85
2023-11-23T18:24:32.538Z,20.10
2023-11-23T18:27:00.655Z,19.17
2023-11-23T18:29:27.096Z,18.88
2023-11-23T18:31:53.505Z,17.20
2023-11-23T18:34:19.969Z,19.52
2023-11-23T18:36:46.554Z,17.08
2023-11-23T18:39:14.966Z,17.92
2023-11-23T18:41:43.464Z,18.20
2023-11-23T18:44:11.920Z,16.88
2023-11-23T18:46:39.365Z,18.38
2023-11-23T18:49:05.987Z,17.92
2023-11-23T18:51:32.514Z,19.90
2023-11-23T18:53:59.027Z,42.25
2023-11-23T18:56:25.342Z,18.38
2023-11-23T18:58:51.705Z,21.35
2023-11-23T19:01:18.585Z,19.20
2023-11-23T19:03:46.661Z,15.05
2023-11-23T19:06:13.163Z,18.08
2023-11-23T19:08:39.597Z,13.45
2023-11-23T19:11:06.282Z,18.23
2023-11-23T19:13:32.719Z,13.43
2023-11-23T19:15:59.187Z,13.15
2023-11-23T19:18:25.945Z,11.93
2023-11-23T19:20:52.770Z,14.65
2023-11-23T19:23:19.248Z,13.10
2023-11-23T19:25:50.081Z,13.27
2023-11-23T19:28:16.940Z,14.07
2023-11-23T19:30:44.119Z,12.30
2023-11-23T19:33:11.414Z,13.43
2023-11-23T19:35:37.938Z,11.88
2023-11-23T19:38:07.069Z,13.82
2023-11-23T19:40:33.458Z,12.27
2023-11-23T19:43:00.353Z,12.77
2023-11-23T19:45:28.136Z,15.40
2023-11-23T19:47:55.124Z,13.43
2023-11-23T19:50:22.453Z,19.77
2023-11-23T19:52:51.815Z,18.75
2023-11-23T19:55:19.125Z,13.10
2023-11-23T19:57:45.542Z,14.18
2023-11-23T20:00:12.624Z,11.88
2023-11-23T20:02:39.145Z,13.05
2023-11-23T20:05:06.168Z,18.15
2023-11-23T20:07:33.627Z,10.75
2023-11-23T20:10:00.040Z,13.55
2023-11-23T20:12:26.711Z,12.85
2023-11-23T20:14:53.209Z,10.70
2023-11-23T20:17:20.909Z,13.50
2023-11-23T20:19:50.341Z,10.15
2023-11-23T20:22:17.095Z,11.27
2023-11-23T20:24:43.486Z,11.80
2023-11-23T20:27:12.702Z,10.43
2023-11-23T20:29:39.099Z,12.88
2023-11-23T20:32:08.280Z,20.80
2023-11-23T20:34:34.766Z,10.75
2023-11-23T20:37:01.297Z,11.75
2023-11-23T20:39:31.681Z,13.15
2023-11-23T20:41:59.056Z,13.30
2023-11-23T20:44:25.714Z,12.68
2023-11-23T20:46:52.731Z,14.80
2023-11-23T20:49:19.519Z,11.23
2023-11-23T20:51:45.990Z,20.25
2023-11-23T20:54:12.437Z,9.77
2023-11-23T20:56:39.375Z,14.55
2023-11-23T20:59:06.028Z,12.00
2023-11-23T21:01:36.495Z,12.65
2023-11-23T21:04:04.352Z,13.10
2023-11-23T21:06:31.566Z,14.30
2023-11-23T21:08:58.934Z,15.57
2023-11-23T21:11:25.272Z,13.95
2023-11-23T21:13:51.657Z,15.38
2023-11-23T21:16:17.988Z,15.48
2023-11-23T21:18:44.384Z,11.77
2023-11-23T21:21:10.871Z,10.52
2023-11-23T21:23:37.847Z,14.32
2023-11-23T21:26:05.387Z,15.07
2023-11-23T21:28:32.921Z,15.48
2023-11-23T21:30:59.462Z,14.80
2023-11-23T21:33:26.066Z,18.05
2023-11-23T21:35:52.536Z,13.73
2023-11-23T21:38:18.811Z,12.68
2023-11-23T21:40:45.126Z,12.15
2023-11-23T21:43:11.431Z,11.70
2023-11-23T21:45:37.808Z,12.57
2023-11-23T21:48:04.436Z,18.65
2023-11-23T21:50:32.154Z,20.08
2023-11-23T21:52:59.915Z,17.63
2023-11-23T21:55:26.379Z,23.15
2023-11-23T21:57:52.764Z,16.70
2023-11-23T22:00:19.405Z,15.95
2023-11-23T22:02:45.957Z,14.25
2023-11-23T22:05:12.368Z,12.77
2023-11-23T22:07:38.759Z,14.13
2023-11-23T22:10:05.442Z,11.32
2023-11-23T22:12:31.803Z,17.25
2023-11-23T22:14:59.044Z,13.98
2023-11-23T22:17:26.277Z,15.52
2023-11-23T22:19:53.107Z,11.73
2023-11-23T22:22:20.160Z,10.27
2023-11-23T22:24:46.637Z,11.50
2023-11-23T22:27:13.090Z,7.55
2023-11-23T22:29:39.473Z,10.65
2023-11-23T22:32:06.932Z,11.25
2023-11-23T22:34:33.465Z,10.50
2023-11-23T22:37:00.019Z,6.80
2023-11-23T22:39:26.577Z,11.50
2023-11-23T22:41:53.091Z,13.32
2023-11-23T22:44:19.842Z,13.30
2023-11-23T22:46:46.395Z,10.77
2023-11-23T22:49:13.114Z,12.35
2023-11-23T22:51:39.611Z,13.80
2023-11-23T22:54:07.181Z,11.27
2023-11-23T22:56:33.923Z,9.25
2023-11-23T22:59:00.301Z,9.30
2023-11-23T23:01:26.800Z,15.95
2023-11-23T23:03:53.287Z,6.97
2023-11-23T23:06:19.918Z,10.45
2023-11-23T23:08:49.777Z,11.23
2023-11-23T23:11:16.209Z,11.15
2023-11-23T23:13:43.769Z,8.82
2023-11-23T23:16:10.488Z,7.68
2023-11-23T23:18:36.966Z,8.75
2023-11-23T23:21:03.358Z,8.98
2023-11-23T23:23:29.758Z,7.45
2023-11-23T23:25:56.082Z,9.43
2023-11-23T23:28:29.713Z,9.00
2023-11-23T23:30:58.891Z,8.32
2023-11-23T23:33:25.478Z,10.02
2023-11-23T23:35:53.089Z,10.45
2023-11-23T23:38:19.629Z,11.93
2023-11-23T23:40:50.457Z,16.92
2023-11-23T23:43:17.566Z,14.77
2023-11-23T23:45:43.997Z,15.40
2023-11-23T23:48:10.359Z,13.45
2023-11-23T23:50:36.728Z,16.55
2023-11-23T23:53:03.469Z,17.15
2023-11-23T23:55:29.818Z,19.42
2023-11-23T23:57:57.940Z,15.35
